createdAt,value
2019-01-02T00:00:33.786Z,100977.00
2019-01-02T00:03:02.906Z,100975.00
2019-01-02T00:05:32.274Z,100979.00
2019-01-02T00:08:01.390Z,100966.00
2019-01-02T00:10:30.760Z,100973.00
2019-01-02T00:12:59.873Z,100978.00
2019-01-02T00:15:29.248Z,100984.00
2019-01-02T00:17:58.357Z,100985.00
2019-01-02T00:20:27.449Z,100981.00
2019-01-02T00:22:56.563Z,100982.00
2019-01-02T00:25:25.658Z,100986.00
2019-01-02T00:27:55.154Z,100998.00
2019-01-02T00:30:24.252Z,100985.00
2019-01-02T00:32:53.546Z,100999.00
2019-01-02T00:35:42.068Z,100989.00
2019-01-02T00:38:11.188Z,100985.00
2019-01-02T00:40:40.285Z,100984.00
2019-01-02T00:43:09.406Z,100985.00
2019-01-02T00:45:38.502Z,100988.00
2019-01-02T00:48:07.619Z,100987.00
2019-01-02T00:50:37.091Z,100999.00
2019-01-02T00:53:06.207Z,100990.00
2019-01-02T00:55:35.675Z,101002.00
2019-01-02T00:58:04.792Z,101000.00
2019-01-02T01:00:34.257Z,101008.00
2019-01-02T01:03:03.374Z,101009.00
2019-01-02T01:05:32.467Z,101015.00
2019-01-02T01:08:01.581Z,101019.00
2019-01-02T01:10:30.674Z,101015.00
2019-01-02T01:12:59.787Z,101012.00
2019-01-02T01:15:28.881Z,101015.00
2019-01-02T01:17:57.999Z,101013.00
2019-01-02T01:20:27.096Z,101027.00
2019-01-02T01:22:56.208Z,101027.00
2019-01-02T01:25:25.712Z,101020.00
2019-01-02T01:27:54.824Z,101030.00
2019-01-02T01:30:23.916Z,101035.00
2019-01-02T01:32:53.029Z,101029.00
2019-01-02T01:35:22.122Z,101039.00
2019-01-02T01:37:51.520Z,101038.00
2019-01-02T01:40:20.610Z,101043.00
2019-01-02T01:42:49.722Z,101045.00
2019-01-02T01:45:19.096Z,101033.00
2019-01-02T01:47:48.513Z,101052.00
2019-01-02T01:50:18.261Z,101037.00
2019-01-02T01:52:47.379Z,101036.00
2019-01-02T01:55:16.497Z,101050.00
2019-01-02T01:57:45.899Z,101038.00
2019-01-02T02:00:17.308Z,101044.00
2019-01-02T02:02:46.420Z,101051.00
2019-01-02T02:05:15.515Z,101053.00
2019-01-02T02:07:44.629Z,101054.00
2019-01-02T02:10:16.320Z,101050.00
2019-01-02T02:12:45.451Z,101054.00
2019-01-02T02:15:14.545Z,101055.00
2019-01-02T02:17:43.942Z,101053.00
2019-01-02T02:20:13.987Z,101052.00
2019-01-02T02:22:43.116Z,101054.00
2019-01-02T02:25:31.644Z,101055.00
2019-01-02T02:28:00.759Z,101052.00
2019-01-02T02:30:29.925Z,101061.00
2019-01-02T02:32:59.053Z,101071.00
2019-01-02T02:35:28.141Z,101062.00
2019-01-02T02:37:57.914Z,101087.00
2019-01-02T02:40:27.008Z,101073.00
2019-01-02T02:42:56.123Z,101077.00
2019-01-02T02:45:26.064Z,101081.00
2019-01-02T02:47:55.565Z,101074.00
2019-01-02T02:50:25.144Z,101074.00
2019-01-02T02:52:54.513Z,101074.00
2019-01-02T02:55:23.912Z,101066.00
2019-01-02T02:57:53.057Z,101082.00
2019-01-02T03:00:22.172Z,101073.00
2019-01-02T03:02:51.273Z,101076.00
2019-01-02T03:05:20.401Z,101071.00
2019-01-02T03:07:49.503Z,101072.00
2019-01-02T03:10:18.993Z,101071.00
2019-01-02T03:12:48.467Z,101080.00
2019-01-02T03:15:17.967Z,101076.00
2019-01-02T03:17:47.061Z,101085.00
2019-01-02T03:20:16.641Z,101079.00
2019-01-02T03:22:45.819Z,101099.00
2019-01-02T03:25:15.375Z,101112.00
2019-01-02T03:27:44.956Z,101114.00
2019-01-02T03:30:17.282Z,101107.00
2019-01-02T03:32:46.738Z,101119.00
2019-01-02T03:35:16.338Z,101116.00
2019-01-02T03:37:45.537Z,101128.00
2019-01-02T03:40:14.656Z,101146.00
2019-01-02T03:42:43.757Z,101155.00
2019-01-02T03:45:18.552Z,101161.00
2019-01-02T03:47:47.645Z,101166.00
2019-01-02T03:50:19.278Z,101137.00
2019-01-02T03:52:48.376Z,101157.00
2019-01-02T03:55:17.500Z,101147.00
2019-01-02T03:57:46.597Z,101160.00
2019-01-02T04:00:18.923Z,101146.00
2019-01-02T04:02:48.019Z,101164.00
2019-01-02T04:05:21.144Z,101153.00
2019-01-02T04:07:55.400Z,101164.00
2019-01-02T04:10:24.519Z,101175.00
2019-01-02T04:12:53.626Z,101165.00
2019-01-02T04:15:22.735Z,101167.00
2019-01-02T04:17:51.834Z,101177.00
2019-01-02T04:20:20.949Z,101169.00
2019-01-02T04:22:50.057Z,101170.00
2019-01-02T04:25:19.176Z,101162.00
2019-01-02T04:27:48.265Z,101176.00
2019-01-02T04:30:17.380Z,101179.00
2019-01-02T04:32:46.469Z,101171.00
2019-01-02T04:35:15.587Z,101187.00
2019-01-02T04:37:44.682Z,101174.00
2019-01-02T04:40:14.262Z,101183.00
2019-01-02T04:42:43.357Z,101192.00
2019-01-02T04:45:12.474Z,101190.00
2019-01-02T04:47:41.646Z,101215.00
2019-01-02T04:50:15.018Z,101207.00
2019-01-02T04:52:44.116Z,101211.00
2019-01-02T04:55:13.240Z,101208.00
2019-01-02T04:57:42.340Z,101196.00
2019-01-02T05:00:35.580Z,101210.00
2019-01-02T05:03:04.676Z,101208.00
2019-01-02T05:05:33.795Z,101217.00
2019-01-02T05:08:02.888Z,101221.00
2019-01-02T05:10:32.011Z,101218.00
2019-01-02T05:13:01.108Z,101220.00
2019-01-02T05:15:30.229Z,101234.00
2019-01-02T05:17:59.326Z,101231.00
2019-01-02T05:20:28.449Z,101245.00
2019-01-02T05:22:57.538Z,101245.00
2019-01-02T05:25:26.649Z,101240.00
2019-01-02T05:27:55.748Z,101244.00
2019-01-02T05:30:24.875Z,101245.00
2019-01-02T05:32:53.962Z,101259.00
2019-01-02T05:35:23.081Z,101269.00
2019-01-02T05:37:52.176Z,101269.00
2019-01-02T05:40:21.296Z,101279.00
2019-01-02T05:42:50.397Z,101282.00
2019-01-02T05:45:19.515Z,101294.00
2019-01-02T05:47:48.611Z,101293.00
2019-01-02T05:50:17.709Z,101300.00
2019-01-02T05:52:46.832Z,101302.00
2019-01-02T05:55:15.934Z,101302.00
2019-01-02T05:57:45.043Z,101306.00
2019-01-02T06:00:14.782Z,101319.00
2019-01-02T06:02:43.900Z,101312.00
2019-01-02T06:05:13.005Z,101318.00
2019-01-02T06:07:42.116Z,101330.00
2019-01-02T06:10:13.015Z,101327.00
2019-01-02T06:12:42.132Z,101321.00
2019-01-02T06:15:13.533Z,101320.00
2019-01-02T06:17:42.648Z,101341.00
2019-01-02T06:20:14.748Z,101342.00
2019-01-02T06:22:43.871Z,101345.00
2019-01-02T06:25:12.978Z,101349.00
2019-01-02T06:27:42.091Z,101352.00
2019-01-02T06:30:12.517Z,101365.00
2019-01-02T06:32:41.641Z,101355.00
2019-01-02T06:35:10.797Z,101366.00
2019-01-02T06:37:39.917Z,101359.00
2019-01-02T06:40:11.030Z,101380.00
2019-01-02T06:42:40.149Z,101376.00
2019-01-02T06:45:12.051Z,101375.00
2019-01-02T06:47:41.168Z,101391.00
2019-01-02T06:50:20.303Z,101384.00
2019-01-02T06:52:49.421Z,101394.00
2019-01-02T06:55:18.519Z,101401.00
2019-01-02T06:57:47.645Z,101407.00
2019-01-02T07:00:21.572Z,101413.00
2019-01-02T07:02:50.697Z,101423.00
2019-01-02T07:05:19.802Z,101423.00
2019-01-02T07:07:48.909Z,101431.00
2019-01-02T07:10:19.209Z,101444.00
2019-01-02T07:12:48.509Z,101456.00
2019-01-02T07:15:17.605Z,101464.00
2019-01-02T07:17:46.720Z,101459.00
2019-01-02T07:20:15.815Z,101458.00
2019-01-02T07:22:44.938Z,101476.00
2019-01-02T07:25:14.038Z,101481.00
2019-01-02T07:27:43.155Z,101486.00
2019-01-02T07:30:19.569Z,101502.00
2019-01-02T07:32:48.819Z,101500.00
2019-01-02T07:35:37.819Z,101509.00
2019-01-02T07:38:29.954Z,101514.00
2019-01-02T07:41:18.139Z,101515.00
2019-01-02T07:44:42.058Z,101525.00
2019-01-02T07:47:50.135Z,101532.00
2019-01-02T07:50:45.021Z,101525.00
2019-01-02T07:53:48.570Z,101546.00
2019-01-02T07:56:39.832Z,101569.00
2019-01-02T07:59:31.640Z,101575.00
2019-01-02T08:02:34.572Z,101572.00
2019-01-02T08:05:33.438Z,101585.00
2019-01-02T08:08:25.474Z,101575.00
2019-01-02T08:11:17.396Z,101585.00
2019-01-02T08:14:25.879Z,101591.00
2019-01-02T08:17:08.959Z,101595.00
2019-01-02T08:19:51.442Z,101595.00
2019-01-02T08:22:52.645Z,101613.00
2019-01-02T08:25:50.327Z,101620.00
2019-01-02T08:28:45.353Z,101622.00
2019-01-02T08:31:39.418Z,101623.00
2019-01-02T08:34:43.495Z,101621.00
2019-01-02T08:38:06.012Z,101624.00
2019-01-02T08:41:15.243Z,101622.00
2019-01-02T08:44:08.746Z,101636.00
2019-01-02T08:46:57.650Z,101643.00
2019-01-02T08:49:46.690Z,101649.00
2019-01-02T08:52:35.423Z,101657.00
2019-01-02T08:55:38.224Z,101661.00
2019-01-02T08:58:41.556Z,101667.00
2019-01-02T09:01:45.372Z,101664.00
2019-01-02T09:04:40.246Z,101657.00
2019-01-02T09:07:32.030Z,101677.00
2019-01-02T09:10:20.956Z,101683.00
2019-01-02T09:13:23.778Z,101690.00
2019-01-02T09:16:41.739Z,101695.00
2019-01-02T09:19:41.169Z,101701.00
2019-01-02T09:22:20.749Z,101721.00
2019-01-02T09:25:27.328Z,101722.00
2019-01-02T09:28:19.938Z,101737.00
2019-01-02T09:31:08.261Z,101736.00
2019-01-02T09:33:58.938Z,101757.00
2019-01-02T09:37:13.734Z,101765.00
2019-01-02T09:39:47.747Z,101779.00
2019-01-02T09:42:55.791Z,101779.00
2019-01-02T09:46:04.747Z,101781.00
2019-01-02T09:49:18.171Z,101794.00
2019-01-02T09:52:22.247Z,101795.00
2019-01-02T09:55:22.082Z,101805.00
2019-01-02T09:58:22.663Z,101808.00
2019-01-02T10:01:16.424Z,101815.00
2019-01-02T10:04:28.392Z,101821.00
2019-01-02T10:07:25.096Z,101818.00
2019-01-02T10:10:33.965Z,101827.00
2019-01-02T10:13:32.428Z,101823.00
2019-01-02T10:16:15.131Z,101829.00
2019-01-02T10:18:57.290Z,101829.00
2019-01-02T10:21:35.328Z,101826.00
2019-01-02T10:24:47.298Z,101826.00
2019-01-02T10:27:21.301Z,101830.00
2019-01-02T10:30:19.269Z,101832.00
2019-01-02T10:33:08.339Z,101826.00
2019-01-02T10:36:19.524Z,101839.00
2019-01-02T10:39:31.534Z,101837.00
2019-01-02T10:42:35.129Z,101845.00
2019-01-02T10:45:58.825Z,101844.00
2019-01-02T10:49:08.420Z,101849.00
2019-01-02T10:52:24.882Z,101860.00
2019-01-02T10:54:59.039Z,101870.00
2019-01-02T10:57:56.992Z,101863.00
2019-01-02T11:01:03.989Z,101865.00
2019-01-02T11:04:10.253Z,101886.00
2019-01-02T11:07:02.092Z,101895.00
2019-01-02T11:10:09.179Z,101909.00
2019-01-02T11:13:02.901Z,101891.00
2019-01-02T11:15:45.915Z,101903.00
2019-01-02T11:18:39.429Z,101894.00
2019-01-02T11:21:25.448Z,101896.00
2019-01-02T11:24:17.272Z,101896.00
2019-01-02T11:27:10.109Z,101911.00
2019-01-02T11:30:32.660Z,101901.00
2019-01-02T11:33:54.421Z,101923.00
2019-01-02T11:36:53.188Z,101917.00
2019-01-02T11:39:44.290Z,101932.00
2019-01-02T11:42:47.616Z,101927.00
2019-01-02T11:45:17.180Z,101932.00
2019-01-02T11:47:46.706Z,101944.00
2019-01-02T11:50:15.920Z,101921.00
2019-01-02T11:52:45.069Z,101939.00
2019-01-02T11:55:14.379Z,101943.00
2019-01-02T11:57:43.467Z,101943.00
2019-01-02T12:00:14.367Z,101943.00
2019-01-02T12:02:43.596Z,101948.00
2019-01-02T12:05:12.699Z,101941.00
2019-01-02T12:07:41.824Z,101950.00
2019-01-02T12:10:11.966Z,101951.00
2019-01-02T12:12:41.116Z,101966.00
2019-01-02T12:15:10.794Z,101951.00
2019-01-02T12:17:39.891Z,101954.00
2019-01-02T12:20:10.635Z,101967.00
2019-01-02T12:22:39.729Z,101966.00
2019-01-02T12:25:08.947Z,101972.00
2019-01-02T12:27:38.129Z,101973.00
2019-01-02T12:30:12.471Z,101990.00
2019-01-02T12:32:41.623Z,101986.00
2019-01-02T12:35:30.718Z,101997.00
2019-01-02T12:37:59.815Z,102000.00
2019-01-02T12:40:48.444Z,101934.00
2019-01-02T12:43:17.585Z,101995.00
2019-01-02T12:45:46.712Z,102008.00
2019-01-02T12:48:15.853Z,101994.00
2019-01-02T12:50:45.008Z,101994.00
2019-01-02T12:53:14.104Z,102000.00
2019-01-02T12:55:43.236Z,102000.00
2019-01-02T12:58:12.331Z,102001.00
2019-01-02T13:00:46.359Z,102011.00
2019-01-02T13:03:50.482Z,102007.00
2019-01-02T13:07:07.017Z,102020.00
2019-01-02T13:09:43.458Z,102017.00
2019-01-02T13:12:25.755Z,102028.00
2019-01-02T13:15:19.143Z,102020.00
2019-01-02T13:18:01.602Z,102036.00
2019-01-02T13:20:53.782Z,102045.00
2019-01-02T13:23:45.735Z,102041.00
2019-01-02T13:26:25.457Z,102055.00
2019-01-02T13:29:16.909Z,102052.00
2019-01-02T13:31:56.894Z,102047.00
2019-01-02T13:35:03.677Z,102062.00
2019-01-02T13:38:11.016Z,102065.00
2019-01-02T13:41:27.814Z,102060.00
2019-01-02T13:44:16.671Z,102057.00
2019-01-02T13:47:09.988Z,102069.00
2019-01-02T13:50:04.756Z,102066.00
2019-01-02T13:52:33.987Z,102065.00
2019-01-02T13:55:05.901Z,102063.00
2019-01-02T13:57:36.006Z,102069.00
2019-01-02T14:00:09.460Z,102069.00
2019-01-02T14:02:38.755Z,102073.00
2019-01-02T14:05:15.740Z,102084.00
2019-01-02T14:07:44.887Z,102082.00
2019-01-02T14:10:14.060Z,102085.00
2019-01-02T14:12:43.385Z,102086.00
2019-01-02T14:15:12.964Z,102086.00
2019-01-02T14:17:42.140Z,102093.00
2019-01-02T14:20:11.235Z,102097.00
2019-01-02T14:22:40.511Z,102096.00
2019-01-02T14:25:09.593Z,102106.00
2019-01-02T14:27:38.710Z,102105.00
2019-01-02T14:30:09.804Z,102116.00
2019-01-02T14:32:39.020Z,102127.00
2019-01-02T14:35:29.134Z,102133.00
2019-01-02T14:37:58.259Z,102129.00
2019-01-02T14:40:27.380Z,102127.00
2019-01-02T14:42:56.496Z,102127.00
2019-01-02T14:45:25.650Z,102137.00
2019-01-02T14:47:54.778Z,102142.00
2019-01-02T14:50:23.907Z,102151.00
2019-01-02T14:52:53.024Z,102158.00
2019-01-02T14:55:22.191Z,102156.00
2019-01-02T14:57:51.344Z,102161.00
2019-01-02T15:00:20.505Z,102170.00
2019-01-02T15:02:49.663Z,102187.00
2019-01-02T15:05:18.909Z,102176.00
2019-01-02T15:07:48.600Z,102177.00
2019-01-02T15:10:17.799Z,102172.00
2019-01-02T15:12:46.922Z,102181.00
2019-01-02T15:15:16.020Z,102192.00
2019-01-02T15:17:45.141Z,102191.00
2019-01-02T15:20:14.268Z,102190.00
2019-01-02T15:22:44.144Z,102201.00
2019-01-02T15:25:13.280Z,102195.00
2019-01-02T15:27:42.785Z,102202.00
2019-01-02T15:30:12.171Z,102207.00
2019-01-02T15:32:41.289Z,102207.00
2019-01-02T15:35:10.461Z,102219.00
2019-01-02T15:37:39.582Z,102210.00
2019-01-02T15:40:10.020Z,102207.00
2019-01-02T15:42:39.157Z,102212.00
2019-01-02T15:45:08.414Z,102212.00
2019-01-02T15:47:37.539Z,102226.00
2019-01-02T15:50:10.348Z,102227.00
2019-01-02T15:52:39.592Z,102231.00
2019-01-02T15:55:09.143Z,102234.00
2019-01-02T15:57:38.271Z,102233.00
2019-01-02T16:00:11.871Z,102241.00
2019-01-02T16:02:41.400Z,102245.00
2019-01-02T16:05:10.496Z,102245.00
2019-01-02T16:07:39.631Z,102250.00
2019-01-02T16:10:09.473Z,102254.00
2019-01-02T16:12:38.595Z,102254.00
2019-01-02T16:15:08.339Z,102266.00
2019-01-02T16:17:37.464Z,102263.00
2019-01-02T16:20:08.973Z,102276.00
2019-01-02T16:22:38.099Z,102278.00
2019-01-02T16:25:08.356Z,102292.00
2019-01-02T16:27:37.493Z,102303.00
2019-01-02T16:30:08.981Z,102306.00
2019-01-02T16:32:38.477Z,102308.00
2019-01-02T16:35:07.851Z,102325.00
2019-01-02T16:37:36.984Z,102313.00
2019-01-02T16:40:10.519Z,102333.00
2019-01-02T16:42:39.664Z,102332.00
2019-01-02T16:45:09.540Z,102328.00
2019-01-02T16:47:38.736Z,102332.00
2019-01-02T16:50:09.283Z,102330.00
2019-01-02T16:52:38.464Z,102347.00
2019-01-02T16:55:07.558Z,102346.00
2019-01-02T16:57:36.676Z,102341.00
2019-01-02T17:00:10.478Z,102354.00
2019-01-02T17:02:39.600Z,102353.00
2019-01-02T17:05:08.735Z,102357.00
2019-01-02T17:07:38.789Z,102371.00
2019-01-02T17:10:11.183Z,102368.00
2019-01-02T17:12:40.349Z,102375.00
2019-01-02T17:15:09.459Z,102369.00
2019-01-02T17:17:38.671Z,102372.00
2019-01-02T17:20:09.193Z,102374.00
2019-01-02T17:22:38.517Z,102383.00
2019-01-02T17:25:08.744Z,102400.00
2019-01-02T17:27:37.866Z,102401.00
2019-01-02T17:30:08.667Z,102401.00
2019-01-02T17:32:37.795Z,102396.00
2019-01-02T17:35:06.883Z,102402.00
2019-01-02T17:37:36.013Z,102410.00
2019-01-02T17:40:07.014Z,102419.00
2019-01-02T17:42:36.142Z,102415.00
2019-01-02T17:45:07.452Z,102420.00
2019-01-02T17:47:37.379Z,102419.00
2019-01-02T17:50:09.043Z,102419.00
2019-01-02T17:52:38.174Z,102414.00
2019-01-02T17:55:07.278Z,102430.00
2019-01-02T17:57:38.691Z,102434.00
2019-01-02T18:00:10.991Z,102431.00
2019-01-02T18:02:40.114Z,102434.00
2019-01-02T18:05:09.280Z,102435.00
2019-01-02T18:07:38.409Z,102431.00
2019-01-02T18:10:08.635Z,102440.00
2019-01-02T18:12:37.799Z,102433.00
2019-01-02T18:15:26.403Z,102438.00
2019-01-02T18:17:55.835Z,102445.00
2019-01-02T18:20:25.238Z,102435.00
2019-01-02T18:22:54.742Z,102449.00
2019-01-02T18:25:23.878Z,102446.00
2019-01-02T18:27:53.351Z,102451.00
2019-01-02T18:30:22.846Z,102445.00
2019-01-02T18:32:52.282Z,102449.00
2019-01-02T18:35:21.852Z,102453.00
2019-01-02T18:37:51.256Z,102456.00
2019-01-02T18:40:21.052Z,102462.00
2019-01-02T18:42:50.787Z,102466.00
2019-01-02T18:45:20.279Z,102457.00
2019-01-02T18:47:49.595Z,102463.00
2019-01-02T18:50:19.188Z,102471.00
2019-01-02T18:52:48.591Z,102470.00
2019-01-02T18:55:18.104Z,102470.00
2019-01-02T18:57:47.592Z,102474.00
2019-01-02T19:00:17.106Z,102477.00
2019-01-02T19:02:46.600Z,102482.00
2019-01-02T19:05:16.099Z,102491.00
2019-01-02T19:07:45.341Z,102483.00
2019-01-02T19:10:15.138Z,102489.00
2019-01-02T19:12:44.235Z,102492.00
2019-01-02T19:15:13.847Z,102489.00
2019-01-02T19:17:43.226Z,102502.00
2019-01-02T19:20:12.505Z,102496.00
2019-01-02T19:22:41.612Z,102501.00
2019-01-02T19:25:11.138Z,102511.00
2019-01-02T19:27:40.526Z,102507.00
2019-01-02T19:30:30.707Z,102503.00
2019-01-02T19:33:00.014Z,102506.00
2019-01-02T19:35:29.747Z,102515.00
2019-01-02T19:37:59.375Z,102515.00
2019-01-02T19:40:29.032Z,102517.00
2019-01-02T19:42:58.344Z,102520.00
2019-01-02T19:45:28.004Z,102520.00
2019-01-02T19:47:57.271Z,102521.00
2019-01-02T19:50:26.401Z,102520.00
2019-01-02T19:52:55.989Z,102522.00
2019-01-02T19:55:25.708Z,102524.00
2019-01-02T19:57:55.212Z,102522.00
2019-01-02T20:00:24.906Z,102526.00
2019-01-02T20:02:54.298Z,102528.00
2019-01-02T20:05:23.986Z,102536.00
2019-01-02T20:07:53.411Z,102539.00
2019-01-02T20:10:23.101Z,102536.00
2019-01-02T20:12:52.231Z,102542.00
2019-01-02T20:15:21.698Z,102537.00
2019-01-02T20:17:50.801Z,102545.00
2019-01-02T20:20:20.016Z,102545.00
2019-01-02T20:22:49.341Z,102546.00
2019-01-02T20:25:18.476Z,102543.00
2019-01-02T20:27:47.858Z,102537.00
2019-01-02T20:30:17.103Z,102540.00
2019-01-02T20:33:05.669Z,102543.00
2019-01-02T20:35:34.791Z,102537.00
2019-01-02T20:38:04.341Z,102540.00
2019-01-02T20:40:33.963Z,102547.00
2019-01-02T20:43:03.090Z,102540.00
2019-01-02T20:45:32.191Z,102548.00
2019-01-02T20:48:01.317Z,102534.00
2019-01-02T20:50:30.420Z,102538.00
2019-01-02T20:52:59.549Z,102540.00
2019-01-02T20:55:28.658Z,102538.00
2019-01-02T20:57:57.798Z,102539.00
2019-01-02T21:00:26.908Z,102550.00
2019-01-02T21:02:56.044Z,102539.00
2019-01-02T21:05:25.151Z,102534.00
2019-01-02T21:07:54.357Z,102534.00
2019-01-02T21:10:23.452Z,102542.00
2019-01-02T21:12:52.546Z,102543.00
2019-01-02T21:15:21.677Z,102539.00
2019-01-02T21:17:50.857Z,102538.00
2019-01-02T21:20:19.986Z,102533.00
2019-01-02T21:22:49.089Z,102529.00
2019-01-02T21:25:18.221Z,102544.00
2019-01-02T21:27:47.329Z,102543.00
2019-01-02T21:30:16.464Z,102532.00
2019-01-02T21:32:45.653Z,102527.00
2019-01-02T21:35:14.796Z,102525.00
2019-01-02T21:37:43.901Z,102533.00
2019-01-02T21:40:13.035Z,102525.00
2019-01-02T21:42:42.138Z,102529.00
2019-01-02T21:45:11.268Z,102532.00
2019-01-02T21:47:40.367Z,102529.00
2019-01-02T21:50:09.665Z,102531.00
2019-01-02T21:52:38.765Z,102526.00
2019-01-02T21:55:07.898Z,102525.00
2019-01-02T21:57:37.079Z,102525.00
2019-01-02T22:00:11.321Z,102522.00
2019-01-02T22:02:40.623Z,102533.00
2019-01-02T22:05:09.837Z,102521.00
2019-01-02T22:07:38.943Z,102522.00
2019-01-02T22:10:09.310Z,102524.00
2019-01-02T22:12:38.407Z,102522.00
2019-01-02T22:15:10.342Z,102520.00
2019-01-02T22:17:40.487Z,102518.00
2019-01-02T22:20:09.754Z,102521.00
2019-01-02T22:22:38.860Z,102513.00
2019-01-02T22:25:08.042Z,102523.00
2019-01-02T22:27:37.150Z,102521.00
2019-01-02T22:30:07.983Z,102535.00
2019-01-02T22:32:37.084Z,102527.00
2019-01-02T22:35:06.645Z,102535.00
2019-01-02T22:37:35.746Z,102529.00
2019-01-02T22:40:06.783Z,102538.00
2019-01-02T22:42:35.891Z,102535.00
2019-01-02T22:45:05.091Z,102541.00
2019-01-02T22:47:34.191Z,102534.00
2019-01-02T22:50:03.686Z,102541.00
2019-01-02T22:52:32.785Z,102550.00
2019-01-02T22:55:01.921Z,102545.00
2019-01-02T22:57:31.022Z,102544.00
2019-01-02T23:00:00.180Z,102556.00
2019-01-02T23:02:30.878Z,102546.00
2019-01-02T23:05:01.644Z,102567.00
2019-01-02T23:07:50.722Z,102557.00
2019-01-02T23:10:24.155Z,102564.00
2019-01-02T23:13:10.827Z,102555.00
2019-01-02T23:15:54.020Z,102571.00
2019-01-02T23:18:33.768Z,102567.00
2019-01-02T23:21:22.081Z,102566.00
2019-01-02T23:23:52.831Z,102567.00
2019-01-02T23:26:39.942Z,102570.00
2019-01-02T23:29:11.008Z,102563.00
2019-01-02T23:31:47.519Z,102566.00
2019-01-02T23:34:18.263Z,102564.00
2019-01-02T23:37:08.459Z,102564.00
2019-01-02T23:39:48.512Z,102563.00
2019-01-02T23:42:35.531Z,102560.00
2019-01-02T23:45:23.105Z,102571.00
2019-01-02T23:47:53.862Z,102575.00
2019-01-02T23:50:36.417Z,102575.00
2019-01-02T23:53:22.399Z,102569.00
2019-01-02T23:55:56.043Z,102580.00
2019-01-02T23:58:29.750Z,102583.00
